createdAt,value
2023-02-12T00:00:30.440Z,9.73
2023-02-12T00:03:02.968Z,9.70
2023-02-12T00:05:32.995Z,12.82
2023-02-12T00:08:03.245Z,11.40
2023-02-12T00:10:33.190Z,11.02
2023-02-12T00:13:03.177Z,9.43
2023-02-12T00:15:34.507Z,14.07
2023-02-12T00:18:07.316Z,8.60
2023-02-12T00:20:37.318Z,6.78
2023-02-12T00:23:07.609Z,10.63
2023-02-12T00:25:37.605Z,6.28
2023-02-12T00:28:07.633Z,10.18
2023-02-12T00:30:38.394Z,10.25
2023-02-12T00:33:10.941Z,10.68
2023-02-12T00:35:41.281Z,12.00
2023-02-12T00:38:11.209Z,9.55
2023-02-12T00:40:41.190Z,13.80
2023-02-12T00:43:11.506Z,12.27
2023-02-12T00:45:41.502Z,17.48
2023-02-12T00:48:14.090Z,11.98
2023-02-12T00:50:45.026Z,12.27
2023-02-12T00:53:15.667Z,15.02
2023-02-12T00:55:45.657Z,12.30
2023-02-12T00:58:18.905Z,13.25
2023-02-12T01:00:49.439Z,14.10
2023-02-12T01:03:22.006Z,14.05
2023-02-12T01:05:52.007Z,18.50
2023-02-12T01:08:23.456Z,15.13
2023-02-12T01:10:59.294Z,14.05
2023-02-12T01:13:30.517Z,12.70
2023-02-12T01:16:12.829Z,12.32
2023-02-12T01:18:45.513Z,9.38
2023-02-12T01:21:17.084Z,9.55
2023-02-12T01:23:47.616Z,11.82
2023-02-12T01:26:18.654Z,14.00
2023-02-12T01:28:52.373Z,15.00
2023-02-12T01:31:24.614Z,10.05
2023-02-12T01:33:58.445Z,16.80
2023-02-12T01:36:30.378Z,10.68
2023-02-12T01:39:02.948Z,15.50
2023-02-12T01:41:35.118Z,12.73
2023-02-12T01:44:15.610Z,12.05
2023-02-12T01:46:46.815Z,11.63
2023-02-12T01:49:23.591Z,14.25
2023-02-12T01:51:56.516Z,8.57
2023-02-12T01:54:28.515Z,19.60
2023-02-12T01:56:58.541Z,16.40
2023-02-12T01:59:28.952Z,11.23
2023-02-12T02:01:58.968Z,17.10
2023-02-12T02:04:39.544Z,15.52
2023-02-12T02:07:10.931Z,12.27
2023-02-12T02:09:41.918Z,12.48
2023-02-12T02:12:24.546Z,14.68
2023-02-12T02:14:57.972Z,14.57
2023-02-12T02:17:38.187Z,19.15
2023-02-12T02:20:45.722Z,11.90
2023-02-12T02:23:45.534Z,10.82
2023-02-12T02:26:31.691Z,11.20
2023-02-12T02:29:11.547Z,14.15
2023-02-12T02:31:45.990Z,13.68
2023-02-12T02:34:22.097Z,11.88
2023-02-12T02:37:00.792Z,15.82
2023-02-12T02:39:36.477Z,12.82
2023-02-12T02:42:12.739Z,13.40
2023-02-12T02:44:46.611Z,13.90
2023-02-12T02:47:21.098Z,14.55
2023-02-12T02:49:54.253Z,10.80
2023-02-12T02:52:29.308Z,19.95
2023-02-12T02:55:01.931Z,12.38
2023-02-12T02:57:39.523Z,16.40
2023-02-12T03:00:15.002Z,12.65
2023-02-12T03:02:50.620Z,17.30
2023-02-12T03:05:24.564Z,14.48
2023-02-12T03:07:57.478Z,14.73
2023-02-12T03:10:30.379Z,12.75
2023-02-12T03:13:04.576Z,13.65
2023-02-12T03:15:37.840Z,15.88
2023-02-12T03:18:12.913Z,18.85
2023-02-12T03:20:46.387Z,20.10
2023-02-12T03:23:18.911Z,20.40
2023-02-12T03:25:54.568Z,16.80
2023-02-12T03:28:30.052Z,18.83
2023-02-12T03:31:06.238Z,19.92
2023-02-12T03:33:44.648Z,19.40
2023-02-12T03:36:26.921Z,16.67
2023-02-12T03:38:58.461Z,18.02
2023-02-12T03:41:32.058Z,18.80
2023-02-12T03:44:09.100Z,23.58
2023-02-12T03:46:44.681Z,21.58
2023-02-12T03:49:23.306Z,17.90
2023-02-12T03:51:54.020Z,16.20
2023-02-12T03:54:24.971Z,22.60
2023-02-12T03:56:58.358Z,20.48
2023-02-12T03:59:28.931Z,22.30
2023-02-12T04:02:01.904Z,27.15
2023-02-12T04:04:35.032Z,21.08
2023-02-12T04:07:05.224Z,24.88
2023-02-12T04:09:35.398Z,18.25
2023-02-12T04:12:20.217Z,22.42
2023-02-12T04:14:59.310Z,28.55
2023-02-12T04:17:36.514Z,21.40
2023-02-12T04:20:13.795Z,23.30
2023-02-12T04:22:52.989Z,29.40
2023-02-12T04:25:28.668Z,25.33
2023-02-12T04:28:03.822Z,22.13
2023-02-12T04:30:38.561Z,34.92
2023-02-12T04:33:10.876Z,32.95
2023-02-12T04:35:47.284Z,30.40
2023-02-12T04:38:20.730Z,27.70
2023-02-12T04:40:51.121Z,35.65
2023-02-12T04:43:30.500Z,32.65
2023-02-12T04:48:30.293Z,39.92
2023-02-12T04:51:02.879Z,25.02
2023-02-12T04:53:32.883Z,26.20
2023-02-12T04:56:02.845Z,22.25
2023-02-12T04:58:32.772Z,27.85
2023-02-12T05:01:02.766Z,34.35
2023-02-12T05:03:32.750Z,27.92
2023-02-12T05:06:08.890Z,25.40
2023-02-12T05:08:39.110Z,29.85
2023-02-12T05:11:09.760Z,36.28
2023-02-12T05:13:41.887Z,33.10
2023-02-12T05:16:11.868Z,29.27
2023-02-12T05:18:41.841Z,37.80
2023-02-12T05:21:14.435Z,21.92
2023-02-12T05:23:44.947Z,39.97
2023-02-12T05:26:16.966Z,21.45
2023-02-12T05:28:47.010Z,26.58
2023-02-12T05:31:21.489Z,28.77
2023-02-12T05:33:52.675Z,34.15
2023-02-12T05:36:26.602Z,28.02
2023-02-12T05:38:59.743Z,31.55
2023-02-12T05:41:34.810Z,35.88
2023-02-12T05:44:05.302Z,21.95
2023-02-12T05:46:35.375Z,33.33
2023-02-12T05:49:05.335Z,31.33
2023-02-12T05:51:38.127Z,22.90
2023-02-12T05:54:10.026Z,27.33
2023-02-12T05:56:41.454Z,31.40
2023-02-12T05:59:15.632Z,33.03
2023-02-12T06:01:47.518Z,34.40
2023-02-12T06:04:19.102Z,28.10
2023-02-12T06:06:51.736Z,15.77
2023-02-12T06:09:21.770Z,31.15
2023-02-12T06:11:51.706Z,31.33
2023-02-12T06:14:23.670Z,22.52
2023-02-12T06:16:54.422Z,24.75
2023-02-12T06:19:24.583Z,26.25
2023-02-12T06:21:57.126Z,27.45
2023-02-12T06:24:27.118Z,45.58
2023-02-12T06:26:57.087Z,41.25
2023-02-12T06:29:27.136Z,32.67
2023-02-12T06:31:57.145Z,25.13
2023-02-12T06:34:27.132Z,24.27
2023-02-12T06:37:00.128Z,22.90
2023-02-12T06:39:30.110Z,28.58
2023-02-12T06:42:00.085Z,32.38
2023-02-12T06:44:30.116Z,26.95
2023-02-12T06:47:00.167Z,26.67
2023-02-12T06:49:30.138Z,33.78
2023-02-12T06:52:03.502Z,27.50
2023-02-12T06:54:33.749Z,23.75
2023-02-12T06:57:03.689Z,32.85
2023-02-12T06:59:34.385Z,25.20
2023-02-12T07:02:04.278Z,34.58
2023-02-12T07:04:34.223Z,35.05
2023-02-12T07:07:07.302Z,22.15
2023-02-12T07:09:37.278Z,25.67
2023-02-12T07:12:07.362Z,26.95
2023-02-12T07:14:37.407Z,21.27
2023-02-12T07:17:08.793Z,27.27
2023-02-12T07:19:39.177Z,25.92
2023-02-12T07:22:11.763Z,32.75
2023-02-12T07:24:41.841Z,23.63
2023-02-12T07:27:11.773Z,18.58
2023-02-12T07:29:41.713Z,22.33
2023-02-12T07:32:11.761Z,21.05
2023-02-12T07:34:41.809Z,30.45
2023-02-12T07:37:14.358Z,28.98
2023-02-12T07:39:44.324Z,35.17
2023-02-12T07:42:15.232Z,29.35
2023-02-12T07:44:51.850Z,27.80
2023-02-12T07:47:21.799Z,35.33
2023-02-12T07:49:51.794Z,34.42
2023-02-12T07:52:24.337Z,33.85
2023-02-12T07:54:54.237Z,25.45
2023-02-12T07:57:24.406Z,27.70
2023-02-12T07:59:54.312Z,29.60
2023-02-12T08:02:25.729Z,27.92
2023-02-12T08:04:58.684Z,21.70
2023-02-12T08:07:31.285Z,38.95
2023-02-12T08:10:01.227Z,34.90
2023-02-12T08:12:31.158Z,23.92
2023-02-12T08:15:01.087Z,26.75
2023-02-12T08:17:31.005Z,24.65
2023-02-12T08:20:01.033Z,32.33
2023-02-12T08:22:33.581Z,58.85
2023-02-12T08:25:03.499Z,38.20
2023-02-12T08:27:33.469Z,41.05
2023-02-12T08:30:03.523Z,46.38
2023-02-12T08:32:33.909Z,32.38
2023-02-12T08:35:03.931Z,24.42
2023-02-12T08:37:36.461Z,31.58
2023-02-12T08:40:06.702Z,29.63
2023-02-12T08:42:36.629Z,29.80
2023-02-12T08:45:06.942Z,29.58
2023-02-12T08:47:36.862Z,29.05
2023-02-12T08:50:07.065Z,27.30
2023-02-12T08:52:42.966Z,33.03
2023-02-12T08:55:13.013Z,28.50
2023-02-12T08:57:43.000Z,23.55
2023-02-12T09:00:15.101Z,21.05
2023-02-12T09:02:45.152Z,23.38
2023-02-12T09:05:15.142Z,25.27
2023-02-12T09:07:47.680Z,27.20
2023-02-12T09:10:17.801Z,27.90
2023-02-12T09:12:48.534Z,31.95
2023-02-12T09:15:18.748Z,30.92
2023-02-12T09:17:48.666Z,30.20
2023-02-12T09:20:18.989Z,27.88
2023-02-12T09:22:51.735Z,28.15
2023-02-12T09:25:21.669Z,25.02
2023-02-12T09:27:51.628Z,25.05
2023-02-12T09:30:21.753Z,25.27
2023-02-12T09:32:51.814Z,22.27
2023-02-12T09:35:21.826Z,35.88
2023-02-12T09:37:55.628Z,36.72
2023-02-12T09:40:28.964Z,29.65
2023-02-12T09:43:07.908Z,30.75
2023-02-12T09:45:40.452Z,31.55
2023-02-12T09:48:20.046Z,39.40
2023-02-12T09:50:54.891Z,31.63
2023-02-12T09:53:34.415Z,30.08
2023-02-12T09:56:04.425Z,26.92
2023-02-12T09:58:37.052Z,25.15
2023-02-12T10:01:13.912Z,25.25
2023-02-12T10:03:44.500Z,31.92
2023-02-12T10:06:17.584Z,22.73
2023-02-12T10:09:00.524Z,27.38
2023-02-12T10:11:54.353Z,36.40
2023-02-12T10:15:03.599Z,27.95
2023-02-12T10:20:36.352Z,33.45
2023-02-12T10:23:18.044Z,33.13
2023-02-12T10:25:54.501Z,27.20
2023-02-12T10:28:29.370Z,31.33
2023-02-12T10:31:01.161Z,33.00
2023-02-12T10:33:36.364Z,26.02
2023-02-12T10:36:15.056Z,19.58
2023-02-12T10:38:48.941Z,23.83
2023-02-12T10:41:21.636Z,24.48
2023-02-12T10:43:51.737Z,23.00
2023-02-12T10:46:21.784Z,19.48
2023-02-12T10:48:58.971Z,27.25
2023-02-12T10:51:42.048Z,24.92
2023-02-12T10:54:41.057Z,20.95
2023-02-12T10:57:22.771Z,17.08
2023-02-12T10:59:54.232Z,22.05
2023-02-12T11:02:29.386Z,33.65
2023-02-12T11:05:01.497Z,20.13
2023-02-12T11:07:31.792Z,15.50
2023-02-12T11:10:01.750Z,23.75
2023-02-12T11:12:41.048Z,17.42
2023-02-12T11:17:47.459Z,18.08
2023-02-12T11:20:29.052Z,19.45
2023-02-12T11:23:01.187Z,22.83
2023-02-12T11:25:33.125Z,21.25
2023-02-12T11:28:13.508Z,23.13
2023-02-12T11:30:53.958Z,24.33
2023-02-12T11:33:29.622Z,19.95
2023-02-12T11:36:01.913Z,18.67
2023-02-12T11:38:37.226Z,24.67
2023-02-12T11:41:12.244Z,15.75
2023-02-12T11:43:44.910Z,16.30
2023-02-12T11:46:22.700Z,18.35
2023-02-12T11:48:52.982Z,19.80
2023-02-12T11:51:25.091Z,21.52
2023-02-12T11:53:56.810Z,29.85
2023-02-12T11:56:26.941Z,22.40
2023-02-12T11:59:14.662Z,19.75
2023-02-12T12:01:44.861Z,23.45
2023-02-12T12:04:17.970Z,30.98
2023-02-12T12:06:51.115Z,25.88
2023-02-12T12:09:26.970Z,21.23
2023-02-12T12:12:02.131Z,20.55
2023-02-12T12:14:56.396Z,21.60
2023-02-12T12:17:42.468Z,19.15
2023-02-12T12:20:15.374Z,20.20
2023-02-12T12:22:50.799Z,23.27
2023-02-12T12:25:25.695Z,19.48
2023-02-12T12:28:13.478Z,17.33
2023-02-12T12:30:52.839Z,22.52
2023-02-12T12:36:13.348Z,23.27
2023-02-12T12:38:50.141Z,22.67
2023-02-12T12:41:27.320Z,25.05
2023-02-12T12:44:09.745Z,14.82
2023-02-12T12:46:56.705Z,17.52
2023-02-12T12:49:37.934Z,14.57
2023-02-12T12:52:21.062Z,19.38
2023-02-12T12:55:08.458Z,18.77
2023-02-12T12:57:47.164Z,12.52
2023-02-12T13:00:44.351Z,14.93
2023-02-12T13:03:46.194Z,13.35
2023-02-12T13:06:24.830Z,23.08
2023-02-12T13:09:15.686Z,17.52
2023-02-12T13:11:52.788Z,16.52
2023-02-12T13:14:34.222Z,12.82
2023-02-12T13:17:09.212Z,17.02
2023-02-12T13:19:50.182Z,16.67
2023-02-12T13:22:26.431Z,21.23
2023-02-12T13:24:59.975Z,16.92
2023-02-12T13:27:34.474Z,20.13
2023-02-12T13:30:09.440Z,17.98
2023-02-12T13:32:43.455Z,17.77
2023-02-12T13:35:22.557Z,14.98
2023-02-12T13:37:55.337Z,16.55
2023-02-12T13:40:27.701Z,16.48
2023-02-12T13:43:01.463Z,16.75
2023-02-12T13:45:43.683Z,18.35
2023-02-12T13:48:32.093Z,23.85
2023-02-12T13:51:09.734Z,13.23
2023-02-12T13:53:49.699Z,10.40
2023-02-12T13:56:30.634Z,14.95
2023-02-12T13:59:01.129Z,13.25
2023-02-12T14:01:47.718Z,13.77
2023-02-12T14:04:29.911Z,16.95
2023-02-12T14:07:08.134Z,16.20
2023-02-12T14:09:40.860Z,19.90
2023-02-12T14:12:13.481Z,14.48
2023-02-12T14:14:45.651Z,23.90
2023-02-12T14:17:55.275Z,128.05
2023-02-12T14:20:28.240Z,63.97
2023-02-12T14:23:20.724Z,35.78
2023-02-12T14:25:59.137Z,58.03
2023-02-12T14:28:37.589Z,43.00
2023-02-12T14:31:32.492Z,31.87
2023-02-12T14:34:35.021Z,35.17
2023-02-12T14:37:18.948Z,30.88
2023-02-12T14:39:51.673Z,23.95
2023-02-12T14:42:46.282Z,29.58
2023-02-12T14:45:32.882Z,36.80
2023-02-12T14:48:02.995Z,144.73
2023-02-12T14:50:40.730Z,96.10
2023-02-12T14:53:27.093Z,130.85
2023-02-12T14:56:00.216Z,28.45
2023-02-12T14:58:31.247Z,16.30
2023-02-12T15:01:03.396Z,17.95
2023-02-12T15:03:41.234Z,24.05
2023-02-12T15:06:14.991Z,21.83
2023-02-12T15:08:48.263Z,22.75
2023-02-12T15:11:26.794Z,28.60
2023-02-12T15:13:58.948Z,34.60
2023-02-12T15:16:35.413Z,33.88
2023-02-12T15:19:11.030Z,34.30
2023-02-12T15:21:41.473Z,51.17
2023-02-12T15:24:13.231Z,67.07
2023-02-12T15:26:50.245Z,67.40
2023-02-12T15:29:24.462Z,109.00
2023-02-12T15:31:56.165Z,39.95
2023-02-12T15:34:28.380Z,72.43
2023-02-12T15:37:02.071Z,62.78
2023-02-12T15:39:37.889Z,35.20
2023-02-12T15:42:26.692Z,24.50
2023-02-12T15:45:11.954Z,40.45
2023-02-12T15:47:42.177Z,61.03
2023-02-12T15:50:15.257Z,71.63
2023-02-12T15:52:47.271Z,102.10
2023-02-12T15:55:19.418Z,118.38
2023-02-12T15:57:56.098Z,87.57
2023-02-12T16:00:31.997Z,138.27
2023-02-12T16:03:02.010Z,124.43
2023-02-12T16:05:34.781Z,73.78
2023-02-12T16:08:05.241Z,95.65
2023-02-12T16:10:35.260Z,52.53
2023-02-12T16:13:08.276Z,70.47
2023-02-12T16:15:40.447Z,86.47
2023-02-12T16:18:26.146Z,75.72
2023-02-12T16:21:06.438Z,107.20
2023-02-12T16:23:38.063Z,83.68
2023-02-12T16:26:08.591Z,82.65
2023-02-12T16:28:41.356Z,68.93
2023-02-12T16:31:13.469Z,93.28
2023-02-12T16:33:48.828Z,89.78
2023-02-12T16:36:32.009Z,158.13
2023-02-12T16:39:04.187Z,64.63
2023-02-12T16:41:35.159Z,60.30
2023-02-12T16:44:33.039Z,37.35
2023-02-12T16:47:03.877Z,40.38
2023-02-12T16:49:33.800Z,31.15
2023-02-12T16:52:23.575Z,32.50
2023-02-12T16:54:53.515Z,25.27
2023-02-12T16:57:23.488Z,31.65
2023-02-12T16:59:56.023Z,22.70
2023-02-12T17:02:25.977Z,28.42
2023-02-12T17:04:56.869Z,49.10
2023-02-12T17:07:29.555Z,121.50
2023-02-12T17:09:59.724Z,29.48
2023-02-12T17:12:29.949Z,40.28
2023-02-12T17:15:06.600Z,85.13
2023-02-12T17:17:36.523Z,26.35
2023-02-12T17:20:06.637Z,15.73
2023-02-12T17:22:36.696Z,28.52
2023-02-12T17:25:07.116Z,58.22
2023-02-12T17:27:38.232Z,23.73
2023-02-12T17:30:12.141Z,20.67
2023-02-12T17:32:42.119Z,13.65
2023-02-12T17:35:12.550Z,93.38
2023-02-12T17:37:42.466Z,114.75
2023-02-12T17:40:14.769Z,115.75
2023-02-12T17:42:44.743Z,159.02
2023-02-12T17:45:17.382Z,96.97
2023-02-12T17:47:47.293Z,89.18
2023-02-12T17:50:19.030Z,42.17
2023-02-12T17:52:49.315Z,19.20
2023-02-12T17:55:19.409Z,26.83
2023-02-12T17:57:49.337Z,16.27
2023-02-12T18:00:24.535Z,15.88
2023-02-12T18:02:57.044Z,19.73
2023-02-12T18:05:27.222Z,18.50
2023-02-12T18:07:57.309Z,20.42
2023-02-12T18:10:27.260Z,17.52
2023-02-12T18:12:57.338Z,21.40
2023-02-12T18:15:27.325Z,14.40
2023-02-12T18:17:59.922Z,21.52
2023-02-12T18:20:30.053Z,21.00
2023-02-12T18:22:59.991Z,20.80
2023-02-12T18:25:30.054Z,16.92
2023-02-12T18:28:01.395Z,34.22
2023-02-12T18:30:31.648Z,40.63
2023-02-12T18:33:04.386Z,41.05
2023-02-12T18:35:37.171Z,51.33
2023-02-12T18:38:10.920Z,72.15
2023-02-12T18:40:43.041Z,59.97
2023-02-12T18:43:13.005Z,52.88
2023-02-12T18:45:43.346Z,35.75
2023-02-12T18:48:16.012Z,43.33
2023-02-12T18:50:46.094Z,27.10
2023-02-12T18:53:16.094Z,19.33
2023-02-12T18:55:46.419Z,25.20
2023-02-12T18:58:16.427Z,24.58
2023-02-12T19:00:46.455Z,22.92
2023-02-12T19:03:19.851Z,15.70
2023-02-12T19:05:49.897Z,23.55
2023-02-12T19:08:19.996Z,26.48
2023-02-12T19:10:50.000Z,44.28
2023-02-12T19:13:20.053Z,41.60
2023-02-12T19:15:50.054Z,32.13
2023-02-12T19:18:22.609Z,25.15
2023-02-12T19:20:52.650Z,30.00
2023-02-12T19:23:27.235Z,35.67
2023-02-12T19:25:57.326Z,47.63
2023-02-12T19:28:27.333Z,47.47
2023-02-12T19:30:57.674Z,40.03
2023-02-12T19:33:30.563Z,52.70
2023-02-12T19:36:00.598Z,73.13
2023-02-12T19:38:30.647Z,50.60
2023-02-12T19:41:05.631Z,195.88
2023-02-12T19:43:35.915Z,157.68
2023-02-12T19:46:09.249Z,107.30
2023-02-12T19:48:42.165Z,111.72
2023-02-12T19:51:16.527Z,91.60
2023-02-12T19:53:46.688Z,64.43
2023-02-12T19:56:17.109Z,39.75
2023-02-12T19:58:48.095Z,29.83
2023-02-12T20:01:20.211Z,30.25
2023-02-12T20:03:52.953Z,25.63
2023-02-12T20:06:24.676Z,28.38
2023-02-12T20:08:54.770Z,43.67
2023-02-12T20:11:25.828Z,22.92
2023-02-12T20:13:55.904Z,21.90
2023-02-12T20:16:34.311Z,25.30
2023-02-12T20:19:11.059Z,25.30
2023-02-12T20:21:41.703Z,26.45
2023-02-12T20:24:11.631Z,26.63
2023-02-12T20:26:41.951Z,20.05
2023-02-12T20:29:11.928Z,17.80
2023-02-12T20:31:42.117Z,25.33
2023-02-12T20:34:16.325Z,25.20
2023-02-12T20:36:48.886Z,21.92
2023-02-12T20:39:20.355Z,37.28
2023-02-12T20:41:50.600Z,29.58
2023-02-12T20:44:23.063Z,25.17
2023-02-12T20:46:57.108Z,27.23
2023-02-12T20:49:29.989Z,21.63
2023-02-12T20:51:59.926Z,23.98
2023-02-12T20:54:29.838Z,20.73
2023-02-12T20:56:59.802Z,25.42
2023-02-12T20:59:29.813Z,24.75
2023-02-12T21:01:59.767Z,23.88
2023-02-12T21:04:32.666Z,20.27
2023-02-12T21:07:02.780Z,18.58
2023-02-12T21:09:33.759Z,25.73
2023-02-12T21:12:03.727Z,26.77
2023-02-12T21:14:33.749Z,17.65
2023-02-12T21:17:03.700Z,37.50
2023-02-12T21:19:37.053Z,22.60
2023-02-12T21:22:07.012Z,25.58
2023-02-12T21:24:37.076Z,29.70
2023-02-12T21:27:07.045Z,19.10
2023-02-12T21:29:36.991Z,28.15
2023-02-12T21:32:07.318Z,35.55
2023-02-12T21:34:40.178Z,42.17
2023-02-12T21:37:10.107Z,39.22
2023-02-12T21:39:40.016Z,43.63
2023-02-12T21:42:09.958Z,31.63
2023-02-12T21:44:39.917Z,40.60
2023-02-12T21:47:10.248Z,65.97
2023-02-12T21:49:42.921Z,51.55
2023-02-12T21:52:13.055Z,39.45
2023-02-12T21:54:43.104Z,34.47
2023-02-12T21:57:18.133Z,20.45
2023-02-12T21:59:48.118Z,21.00
2023-02-12T22:02:18.361Z,17.38
2023-02-12T22:04:50.925Z,270.70
2023-02-12T22:07:21.053Z,346.00
2023-02-12T22:09:51.039Z,214.40
2023-02-12T22:12:20.958Z,147.60
2023-02-12T22:14:50.888Z,60.75
2023-02-12T22:17:20.893Z,33.45
2023-02-12T22:19:53.455Z,49.97
2023-02-12T22:22:23.918Z,25.23
2023-02-12T22:24:53.834Z,21.27
2023-02-12T22:27:23.805Z,46.60
2023-02-12T22:29:53.836Z,55.67
2023-02-12T22:32:23.907Z,23.52
2023-02-12T22:34:56.740Z,42.08
2023-02-12T22:37:26.691Z,92.53
2023-02-12T22:39:56.626Z,134.85
2023-02-12T22:42:26.536Z,151.43
2023-02-12T22:44:56.470Z,165.85
2023-02-12T22:47:29.015Z,21.42
2023-02-12T22:50:01.750Z,24.15
2023-02-12T22:52:31.967Z,19.65
2023-02-12T22:55:01.928Z,18.23
2023-02-12T22:57:31.855Z,20.25
2023-02-12T23:00:01.810Z,19.65
2023-02-12T23:02:31.739Z,17.77
2023-02-12T23:05:04.305Z,19.77
2023-02-12T23:07:34.289Z,68.75
2023-02-12T23:10:04.254Z,36.97
2023-02-12T23:12:34.150Z,48.85
2023-02-12T23:15:04.099Z,49.53
2023-02-12T23:17:34.070Z,26.60
2023-02-12T23:20:07.559Z,27.45
2023-02-12T23:22:37.597Z,32.53
2023-02-12T23:25:08.123Z,28.80
2023-02-12T23:27:38.077Z,23.25
2023-02-12T23:30:09.492Z,17.95
2023-02-12T23:32:39.431Z,32.67
2023-02-12T23:35:12.188Z,26.15
2023-02-12T23:37:42.080Z,13.63
2023-02-12T23:40:13.881Z,20.42
2023-02-12T23:42:43.791Z,16.10
2023-02-12T23:45:13.692Z,15.43
2023-02-12T23:47:43.644Z,13.25
2023-02-12T23:50:16.331Z,14.35
2023-02-12T23:52:46.517Z,7.65
2023-02-12T23:55:16.510Z,14.10
2023-02-12T23:57:46.452Z,13.20
